El Paso, TX (88529)

12:26 AM MDT on August 30, 2014 (GMT -0600)
DOLPHIN | Change Station
CLOSE
Current Station
Personal Weather Station
Location: EL PASO, TX
Elevation: 3898 ft
Nearby Weather Stations

Elev 3898 ft 31.89 °N, 106.40 °W | Updated 0 second ago

Partly Cloudy
Partly Cloudy
75.2 °F
Feels Like 78 °F
N
0.0
Wind Variable Wind from North
Gusts 0.0 mph

Today
High -- | Low -- °F
--% Chance of Precip.
Yesterday
High -- | Low -- °F
Precip. -- in
6:39 AM 7:31 PM
Waxing Crescent, 19% visible
Pressure 29.78 in
Visibility 10.0 miles
Clouds Few 10000 ft
Heat Index 78 °F
Dew Point 54 °F
Humidity 48%
Rainfall 0.00 in
Snow Depth Not available.
UV 0 out of 12
Pollen 9.20 out of 12
Air Quality Not available.
Flu Activity Not available.
METAR KELP 300551Z 00000KT 10SM FEW100 26/10 A3001 RMK AO2 SLP082 T02560100 10339 20250 50008

More Conditions Fewer Conditions

Pressure 29.78 in
Visibility 10.0 miles
Clouds Few 10000 ft
Heat Index 78 °F
Dew Point 54 °F
Humidity 48%
Rainfall 0.00 in
Snow Depth Not available.
UV 0 out of 12
Pollen 9.20 out of 12
Air Quality Not available.
Flu Activity Not available.
METAR KELP 300551Z 00000KT 10SM FEW100 26/10 A3001 RMK AO2 SLP082 T02560100 10339 20250 50008

More Conditions Fewer Conditions

10-Day Weather Forecast

Almanac

Astronomy

Aug. 30, 2014 Rise Set
Actual Time 6:39 AM MDT 7:31 PM MDT
Civil Twilight 6:15 AM MDT 7:56 PM MDT
Nautical Twilight 5:45 AM MDT 8:26 PM MDT
Astronomical Twilight 5:15 AM MDT 8:56 PM MDT
Moon 11:10 AM MDT 10:28 PM MDT
Length of Visible Light 13h 41m
Length of Day
12h 51m
Tomorrow will be 1m 51s shorter.
Waxing Crescent, 19% of the Moon is Illuminated
Today
Waxing Crescent
Sep 2
First Quarter
Sep 8
Full
Sep 15
Last Quarter
Sep 24
New

Today's Extremes

State Highs State Lows

Community

WunderPhotos

Upload Photos

1,748,465 photos uploaded!

Nearby

Snow Depth

Station Depth Elevation
No new snow has been reported.

Earthquake Activity

City Distance Mag. Time & Date
No recent earthquake activity has been reported nearby.
Minimum magnitude displayed is 2.5.

Coastal Water Temperatures

Place Temperature
No Stations Reporting

Nearby Weather Stations